createdAt,value
2018-09-21T00:00:10.183Z,24.04
2018-09-21T00:00:42.353Z,24.05
2018-09-21T00:01:14.550Z,24.04
2018-09-21T00:01:46.690Z,24.03
2018-09-21T00:02:18.848Z,24.03
2018-09-21T00:02:51.105Z,24.03
2018-09-21T00:03:23.258Z,24.04
2018-09-21T00:03:55.394Z,24.05
2018-09-21T00:04:27.634Z,24.02
2018-09-21T00:04:59.925Z,24.05
2018-09-21T00:05:32.017Z,24.03
2018-09-21T00:06:04.504Z,24.04
2018-09-21T00:06:36.677Z,24.03
2018-09-21T00:07:08.814Z,24.03
2018-09-21T00:07:40.929Z,24.02
2018-09-21T00:08:13.135Z,24.02
2018-09-21T00:08:45.222Z,24.02
2018-09-21T00:09:17.591Z,24.02
2018-09-21T00:09:49.706Z,24.02
2018-09-21T00:10:21.807Z,24.02
2018-09-21T00:10:54.014Z,24.02
2018-09-21T00:11:26.183Z,24.02
2018-09-21T00:11:58.410Z,24.02
2018-09-21T00:12:30.619Z,24.01
2018-09-21T00:13:02.735Z,24.01
2018-09-21T00:13:34.874Z,24.01
2018-09-21T00:14:07.225Z,24.01
2018-09-21T00:14:39.370Z,24.02
2018-09-21T00:15:11.483Z,24.00
2018-09-21T00:15:43.677Z,24.01
2018-09-21T00:16:15.797Z,24.01
2018-09-21T00:16:47.994Z,24.00
2018-09-21T00:17:20.148Z,24.00
2018-09-21T00:17:52.270Z,24.01
2018-09-21T00:18:24.535Z,24.00
2018-09-21T00:18:56.716Z,24.00
2018-09-21T00:19:28.916Z,24.02
2018-09-21T00:20:01.026Z,24.03
2018-09-21T00:20:33.280Z,24.02
2018-09-21T00:21:05.429Z,24.03
2018-09-21T00:21:37.554Z,24.02
2018-09-21T00:22:09.722Z,24.00
2018-09-21T00:22:41.846Z,24.02
2018-09-21T00:23:13.915Z,24.01
2018-09-21T00:23:46.238Z,24.02
2018-09-21T00:24:18.329Z,24.02
2018-09-21T00:24:50.468Z,24.01
2018-09-21T00:25:22.586Z,24.02
2018-09-21T00:25:54.696Z,24.01
2018-09-21T00:26:27.139Z,24.00
2018-09-21T00:26:59.262Z,24.01
2018-09-21T00:27:31.391Z,24.00
2018-09-21T00:28:03.538Z,24.01
2018-09-21T00:28:35.622Z,24.01
2018-09-21T00:29:07.761Z,24.01
2018-09-21T00:29:39.998Z,24.01
2018-09-21T00:30:12.141Z,24.00
2018-09-21T00:30:44.250Z,24.00
2018-09-21T00:31:16.403Z,24.00
2018-09-21T00:31:48.499Z,24.01
2018-09-21T00:32:20.696Z,24.00
2018-09-21T00:32:52.960Z,24.01
2018-09-21T00:33:25.069Z,24.01
2018-09-21T00:33:57.179Z,24.01
2018-09-21T00:34:29.384Z,24.02
2018-09-21T00:35:01.676Z,24.01
2018-09-21T00:35:34.008Z,24.02
2018-09-21T00:36:06.114Z,24.01
2018-09-21T00:36:38.264Z,24.02
2018-09-21T00:37:10.349Z,24.01
2018-09-21T00:37:42.472Z,24.00
2018-09-21T00:38:14.589Z,24.01
2018-09-21T00:38:46.680Z,24.00
2018-09-21T00:39:18.775Z,23.99
2018-09-21T00:39:50.861Z,24.00
2018-09-21T00:40:23.070Z,23.99
2018-09-21T00:40:55.341Z,23.99
2018-09-21T00:41:27.681Z,23.99
2018-09-21T00:41:59.854Z,23.98
2018-09-21T00:42:31.982Z,23.99
2018-09-21T00:43:04.166Z,23.99
2018-09-21T00:43:36.413Z,24.00
2018-09-21T00:44:08.582Z,23.99
2018-09-21T00:44:40.793Z,24.00
2018-09-21T00:45:12.931Z,23.99
2018-09-21T00:45:45.047Z,23.99
2018-09-21T00:46:17.285Z,24.00
2018-09-21T00:46:49.684Z,24.00
2018-09-21T00:47:21.929Z,23.98
2018-09-21T00:47:54.070Z,23.98
2018-09-21T00:48:26.347Z,23.98
2018-09-21T00:48:58.774Z,23.98
2018-09-21T00:49:30.915Z,23.98
2018-09-21T00:50:03.003Z,23.98
2018-09-21T00:50:35.372Z,23.98
2018-09-21T00:51:07.594Z,23.98
2018-09-21T00:51:39.987Z,23.98
2018-09-21T00:52:12.067Z,23.98
2018-09-21T00:52:44.197Z,23.98
2018-09-21T00:53:16.296Z,23.98
2018-09-21T00:53:48.569Z,23.98
2018-09-21T00:54:20.718Z,23.98
2018-09-21T00:54:52.806Z,23.98
2018-09-21T00:55:24.907Z,23.98
2018-09-21T00:55:57.030Z,23.98
2018-09-21T00:56:29.269Z,23.98
2018-09-21T00:57:01.358Z,23.98
2018-09-21T00:57:33.502Z,23.98
2018-09-21T00:58:05.623Z,23.97
2018-09-21T00:58:37.878Z,23.98
2018-09-21T00:59:10.025Z,23.97
2018-09-21T00:59:42.335Z,23.97
2018-09-21T01:00:14.427Z,23.97
2018-09-21T01:00:46.651Z,23.98
2018-09-21T01:01:18.770Z,23.98
2018-09-21T01:01:51.116Z,23.96
2018-09-21T01:02:23.235Z,23.98
2018-09-21T01:02:55.371Z,23.98
2018-09-21T01:03:27.474Z,23.97
2018-09-21T01:03:59.590Z,23.96
2018-09-21T01:04:31.735Z,23.97
2018-09-21T01:05:03.854Z,23.97
2018-09-21T01:05:36.163Z,23.96
2018-09-21T01:06:08.318Z,23.96
2018-09-21T01:06:40.486Z,23.97
2018-09-21T01:07:12.637Z,23.96
2018-09-21T01:07:44.794Z,23.96
2018-09-21T01:08:16.939Z,23.97
2018-09-21T01:08:49.192Z,23.98
2018-09-21T01:09:21.322Z,23.96
2018-09-21T01:09:53.450Z,23.97
2018-09-21T01:10:25.532Z,23.97
2018-09-21T01:10:57.803Z,23.96
2018-09-21T01:11:29.959Z,23.96
2018-09-21T01:12:02.318Z,23.95
2018-09-21T01:12:34.451Z,23.94
2018-09-21T01:13:06.658Z,23.95
2018-09-21T01:13:38.811Z,23.94
2018-09-21T01:14:10.913Z,23.96
2018-09-21T01:14:43.026Z,23.96
2018-09-21T01:15:15.309Z,23.95
2018-09-21T01:15:47.443Z,23.96
2018-09-21T01:16:19.709Z,23.96
2018-09-21T01:16:52.239Z,23.96
2018-09-21T01:17:24.434Z,23.97
2018-09-21T01:17:56.548Z,23.95
2018-09-21T01:18:28.778Z,23.96
2018-09-21T01:19:00.932Z,23.95
2018-09-21T01:19:33.030Z,23.93
2018-09-21T01:20:05.171Z,23.95
2018-09-21T01:20:37.289Z,23.96
2018-09-21T01:21:09.524Z,23.95
2018-09-21T01:21:41.905Z,23.95
2018-09-21T01:22:14.098Z,23.96
2018-09-21T01:22:46.182Z,23.95
2018-09-21T01:23:18.299Z,23.96
2018-09-21T01:23:50.522Z,23.96
2018-09-21T01:24:22.674Z,23.96
2018-09-21T01:24:54.788Z,23.95
2018-09-21T01:25:26.982Z,23.94
2018-09-21T01:25:59.081Z,23.93
2018-09-21T01:26:31.432Z,23.93
2018-09-21T01:27:03.525Z,23.93
2018-09-21T01:27:35.649Z,23.92
2018-09-21T01:28:07.739Z,23.93
2018-09-21T01:28:39.940Z,23.92
2018-09-21T01:29:12.042Z,23.92
2018-09-21T01:29:44.159Z,23.92
2018-09-21T01:30:16.218Z,23.92
2018-09-21T01:30:48.306Z,23.92
2018-09-21T01:31:20.473Z,23.92
2018-09-21T01:31:52.558Z,23.94
2018-09-21T01:32:24.692Z,23.94
2018-09-21T01:32:56.810Z,23.94
2018-09-21T01:33:28.981Z,23.94
2018-09-21T01:34:01.162Z,23.93
2018-09-21T01:34:33.290Z,23.93
2018-09-21T01:35:05.381Z,23.93
2018-09-21T01:35:37.525Z,23.94
2018-09-21T01:36:09.757Z,23.94
2018-09-21T01:36:41.873Z,23.93
2018-09-21T01:37:14.020Z,23.93
2018-09-21T01:37:46.391Z,23.93
2018-09-21T01:38:18.496Z,23.91
2018-09-21T01:38:50.622Z,23.92
2018-09-21T01:39:22.854Z,23.93
2018-09-21T01:39:55.026Z,23.92
2018-09-21T01:40:27.165Z,23.93
2018-09-21T01:40:59.318Z,23.93
2018-09-21T01:41:31.568Z,23.93
2018-09-21T01:42:03.695Z,23.93
2018-09-21T01:42:35.831Z,23.92
2018-09-21T01:43:07.939Z,23.91
2018-09-21T01:43:40.114Z,23.91
2018-09-21T01:44:12.237Z,23.92
2018-09-21T01:44:44.357Z,23.91
2018-09-21T01:45:16.475Z,23.92
2018-09-21T01:45:48.613Z,23.92
2018-09-21T01:46:20.734Z,23.93
2018-09-21T01:46:52.819Z,23.92
2018-09-21T01:47:24.927Z,23.91
2018-09-21T01:47:57.104Z,23.92
2018-09-21T01:48:29.235Z,23.91
2018-09-21T01:49:01.345Z,23.92
2018-09-21T01:49:33.539Z,23.92
2018-09-21T01:50:05.647Z,23.91
2018-09-21T01:50:37.748Z,23.91
2018-09-21T01:51:09.979Z,23.91
2018-09-21T01:51:42.195Z,23.92
2018-09-21T01:52:14.319Z,23.93
2018-09-21T01:52:46.676Z,23.93
2018-09-21T01:53:18.785Z,23.93
2018-09-21T01:53:50.909Z,23.93
2018-09-21T01:54:23.164Z,23.92
2018-09-21T01:54:55.363Z,23.92
2018-09-21T01:55:27.464Z,23.91
2018-09-21T01:55:59.726Z,23.91
2018-09-21T01:56:31.830Z,23.92
2018-09-21T01:57:04.054Z,23.90
2018-09-21T01:57:36.181Z,23.90
2018-09-21T01:58:08.290Z,23.89
2018-09-21T01:58:40.425Z,23.90
2018-09-21T01:59:12.538Z,23.90
2018-09-21T01:59:44.779Z,23.90
2018-09-21T02:00:16.989Z,23.89
2018-09-21T02:00:49.143Z,23.89
2018-09-21T02:01:21.440Z,23.90
2018-09-21T02:01:53.554Z,23.90
2018-09-21T02:02:25.846Z,23.89
2018-09-21T02:02:57.919Z,23.88
2018-09-21T02:03:30.106Z,23.89
2018-09-21T02:04:02.199Z,23.89
2018-09-21T02:04:34.281Z,23.89
2018-09-21T02:05:06.407Z,23.89
2018-09-21T02:05:38.484Z,23.88
2018-09-21T02:06:10.652Z,23.89
2018-09-21T02:06:42.788Z,23.89
2018-09-21T02:07:14.869Z,23.87
2018-09-21T02:07:46.988Z,23.88
2018-09-21T02:08:19.285Z,23.87
2018-09-21T02:08:51.405Z,23.87
2018-09-21T02:09:23.545Z,23.88
2018-09-21T02:09:55.597Z,23.89
2018-09-21T02:10:27.697Z,23.89
2018-09-21T02:10:59.859Z,23.90
2018-09-21T02:11:31.978Z,23.89
2018-09-21T02:12:04.066Z,23.88
2018-09-21T02:12:36.170Z,23.90
2018-09-21T02:13:08.258Z,23.90
2018-09-21T02:13:40.408Z,23.89
2018-09-21T02:14:12.528Z,23.90
2018-09-21T02:14:44.879Z,23.90
2018-09-21T02:15:17.032Z,23.90
2018-09-21T02:15:49.165Z,23.89
2018-09-21T02:16:21.416Z,23.89
2018-09-21T02:16:53.562Z,23.88
2018-09-21T02:17:25.751Z,23.88
2018-09-21T02:17:57.887Z,23.88
2018-09-21T02:18:30.015Z,23.88
2018-09-21T02:19:02.111Z,23.89
2018-09-21T02:19:34.332Z,23.89
2018-09-21T02:20:06.477Z,23.88
2018-09-21T02:20:38.618Z,23.88
2018-09-21T02:21:10.836Z,23.88
2018-09-21T02:21:43.124Z,23.87
2018-09-21T02:22:15.253Z,23.88
2018-09-21T02:22:47.429Z,23.88
2018-09-21T02:23:19.651Z,23.89
2018-09-21T02:23:51.741Z,23.87
2018-09-21T02:24:23.904Z,23.88
2018-09-21T02:24:56.018Z,23.89
2018-09-21T02:25:28.285Z,23.89
2018-09-21T02:26:00.430Z,23.88
2018-09-21T02:26:32.535Z,23.87
2018-09-21T02:27:04.638Z,23.88
2018-09-21T02:27:36.891Z,23.88
2018-09-21T02:28:09.102Z,23.89
2018-09-21T02:28:41.463Z,23.88
2018-09-21T02:29:13.572Z,23.88
2018-09-21T02:29:45.702Z,23.88
2018-09-21T02:30:18.064Z,23.88
2018-09-21T02:30:50.148Z,23.88
2018-09-21T02:31:22.266Z,23.88
2018-09-21T02:31:54.523Z,23.88
2018-09-21T02:32:26.587Z,23.87
2018-09-21T02:32:58.751Z,23.87
2018-09-21T02:33:30.862Z,23.88
2018-09-21T02:34:03.169Z,23.86
2018-09-21T02:34:35.241Z,23.87
2018-09-21T02:35:07.461Z,23.87
2018-09-21T02:35:39.583Z,23.87
2018-09-21T02:36:11.690Z,23.87
2018-09-21T02:36:43.874Z,23.87
2018-09-21T02:37:16.017Z,23.85
2018-09-21T02:37:48.222Z,23.88
2018-09-21T02:38:20.299Z,23.87
2018-09-21T02:38:52.527Z,23.86
2018-09-21T02:39:24.659Z,23.86
2018-09-21T02:39:56.797Z,23.87
2018-09-21T02:40:28.939Z,23.87
2018-09-21T02:41:01.108Z,23.85
2018-09-21T02:41:33.259Z,23.86
2018-09-21T02:42:05.303Z,23.85
2018-09-21T02:42:37.554Z,23.85
2018-09-21T02:43:09.736Z,23.86
2018-09-21T02:43:41.865Z,23.86
2018-09-21T02:44:13.962Z,23.86
2018-09-21T02:44:46.392Z,23.88
2018-09-21T02:45:18.582Z,23.86
2018-09-21T02:45:50.726Z,23.87
2018-09-21T02:46:22.805Z,23.86
2018-09-21T02:46:55.010Z,23.86
2018-09-21T02:47:27.303Z,23.87
2018-09-21T02:47:59.655Z,23.85
2018-09-21T02:48:31.772Z,23.85
2018-09-21T02:49:03.963Z,23.84
2018-09-21T02:49:36.072Z,23.86
2018-09-21T02:50:08.185Z,23.85
2018-09-21T02:50:40.529Z,23.85
2018-09-21T02:51:12.603Z,23.86
2018-09-21T02:51:44.738Z,23.87
2018-09-21T02:52:16.875Z,23.86
2018-09-21T02:52:49.144Z,23.86
2018-09-21T02:53:21.366Z,23.84
2018-09-21T02:53:53.509Z,23.86
2018-09-21T02:54:25.594Z,23.86
2018-09-21T02:54:57.710Z,23.84
2018-09-21T02:55:29.827Z,23.86
2018-09-21T02:56:01.946Z,23.84
2018-09-21T02:56:34.063Z,23.84
2018-09-21T02:57:06.146Z,23.84
2018-09-21T02:57:38.285Z,23.85
2018-09-21T02:58:10.440Z,23.85
2018-09-21T02:58:42.539Z,23.84
2018-09-21T02:59:14.708Z,23.84
2018-09-21T02:59:46.782Z,23.84
2018-09-21T03:00:19.008Z,23.84
2018-09-21T03:00:51.203Z,23.84
2018-09-21T03:01:23.261Z,23.84
2018-09-21T03:01:55.507Z,23.83
2018-09-21T03:02:27.742Z,23.84
2018-09-21T03:02:59.969Z,23.85
2018-09-21T03:03:32.090Z,23.83
2018-09-21T03:04:04.380Z,23.83
2018-09-21T03:04:36.517Z,23.84
2018-09-21T03:05:08.628Z,23.83
2018-09-21T03:05:40.749Z,23.82
2018-09-21T03:06:12.905Z,23.84
2018-09-21T03:06:45.048Z,23.82
2018-09-21T03:07:17.129Z,23.82
2018-09-21T03:07:49.232Z,23.83
2018-09-21T03:08:21.399Z,23.82
2018-09-21T03:08:53.729Z,23.83
2018-09-21T03:09:25.827Z,23.82
2018-09-21T03:09:57.943Z,23.83
2018-09-21T03:10:30.050Z,23.83
2018-09-21T03:11:02.152Z,23.84
2018-09-21T03:11:34.281Z,23.83
2018-09-21T03:12:06.487Z,23.83
2018-09-21T03:12:38.597Z,23.83
2018-09-21T03:13:10.742Z,23.83
2018-09-21T03:13:42.856Z,23.82
2018-09-21T03:14:15.030Z,23.83
2018-09-21T03:14:47.152Z,23.83
2018-09-21T03:15:19.231Z,23.83
2018-09-21T03:15:51.508Z,23.83
2018-09-21T03:16:23.742Z,23.82
2018-09-21T03:16:55.976Z,23.81
2018-09-21T03:17:28.091Z,23.82
2018-09-21T03:18:00.381Z,23.81
2018-09-21T03:18:32.470Z,23.80
2018-09-21T03:19:04.625Z,23.80
2018-09-21T03:19:36.741Z,23.81
2018-09-21T03:20:09.081Z,23.82
2018-09-21T03:20:41.197Z,23.81
2018-09-21T03:21:13.612Z,23.82
2018-09-21T03:21:45.869Z,23.80
2018-09-21T03:22:18.093Z,23.81
2018-09-21T03:22:50.362Z,23.81
2018-09-21T03:23:22.461Z,23.82
2018-09-21T03:23:54.577Z,23.82
2018-09-21T03:24:26.845Z,23.81
2018-09-21T03:24:58.942Z,23.81
2018-09-21T03:25:31.065Z,23.81
2018-09-21T03:26:03.308Z,23.82
2018-09-21T03:26:35.527Z,23.83
2018-09-21T03:27:07.889Z,23.83
2018-09-21T03:27:39.985Z,23.82
2018-09-21T03:28:12.225Z,23.81
2018-09-21T03:28:44.360Z,23.83
2018-09-21T03:29:16.470Z,23.82
2018-09-21T03:29:48.563Z,23.80
2018-09-21T03:30:20.640Z,23.79
2018-09-21T03:30:52.815Z,23.80
2018-09-21T03:31:24.944Z,23.80
2018-09-21T03:31:57.086Z,23.81
2018-09-21T03:32:29.334Z,23.81
2018-09-21T03:33:01.618Z,23.81
2018-09-21T03:33:33.800Z,23.81
2018-09-21T03:34:05.915Z,23.81
2018-09-21T03:34:38.017Z,23.80
2018-09-21T03:35:10.183Z,23.80
2018-09-21T03:35:42.211Z,23.80
2018-09-21T03:36:14.502Z,23.79
2018-09-21T03:36:46.614Z,23.79
2018-09-21T03:37:18.767Z,23.79
2018-09-21T03:37:50.916Z,23.80
2018-09-21T03:38:23.034Z,23.79
2018-09-21T03:38:55.109Z,23.79
2018-09-21T03:39:27.362Z,23.79
2018-09-21T03:39:59.471Z,23.79
2018-09-21T03:40:31.600Z,23.80
2018-09-21T03:41:03.875Z,23.80
2018-09-21T03:41:35.981Z,23.80
2018-09-21T03:42:08.330Z,23.80
2018-09-21T03:42:40.439Z,23.81
2018-09-21T03:43:12.557Z,23.79
2018-09-21T03:43:44.718Z,23.81
2018-09-21T03:44:16.835Z,23.81
2018-09-21T03:44:48.962Z,23.81
2018-09-21T03:45:21.051Z,23.80
2018-09-21T03:45:53.170Z,23.79
2018-09-21T03:46:25.307Z,23.80
2018-09-21T03:46:57.554Z,23.79
2018-09-21T03:47:29.666Z,23.79
2018-09-21T03:48:01.815Z,23.79
2018-09-21T03:48:33.994Z,23.79
2018-09-21T03:49:06.134Z,23.80
2018-09-21T03:49:38.412Z,23.80
2018-09-21T03:50:10.610Z,23.79
2018-09-21T03:50:42.713Z,23.80
2018-09-21T03:51:14.952Z,23.78
2018-09-21T03:51:47.114Z,23.77
2018-09-21T03:52:19.207Z,23.79
2018-09-21T03:52:51.312Z,23.78
2018-09-21T03:53:23.421Z,23.80
2018-09-21T03:53:55.518Z,23.80
2018-09-21T03:54:27.686Z,23.79
2018-09-21T03:54:59.859Z,23.79
2018-09-21T03:55:32.056Z,23.80
2018-09-21T03:56:04.213Z,23.80
2018-09-21T03:56:36.349Z,23.79
2018-09-21T03:57:08.465Z,23.79
2018-09-21T03:57:40.623Z,23.79
2018-09-21T03:58:12.823Z,23.80
2018-09-21T03:58:44.968Z,23.79
2018-09-21T03:59:17.076Z,23.79
2018-09-21T03:59:49.175Z,23.80
2018-09-21T04:00:21.309Z,23.80
2018-09-21T04:00:53.543Z,23.80
2018-09-21T04:01:25.777Z,23.79
2018-09-21T04:01:57.980Z,23.79
2018-09-21T04:02:30.095Z,23.80
2018-09-21T04:03:02.211Z,23.78
2018-09-21T04:03:34.340Z,23.80
2018-09-21T04:04:06.477Z,23.79
2018-09-21T04:04:38.704Z,23.79
2018-09-21T04:05:10.797Z,23.79
2018-09-21T04:05:42.918Z,23.78
2018-09-21T04:06:15.435Z,23.79
2018-09-21T04:06:47.597Z,23.79
2018-09-21T04:07:19.790Z,23.79
2018-09-21T04:07:51.868Z,23.78
2018-09-21T04:08:24.083Z,23.77
2018-09-21T04:08:56.155Z,23.78
2018-09-21T04:09:28.269Z,23.77
2018-09-21T04:10:00.447Z,23.78
2018-09-21T04:10:32.575Z,23.78
2018-09-21T04:11:04.696Z,23.79
2018-09-21T04:11:36.822Z,23.78
2018-09-21T04:12:08.951Z,23.79
2018-09-21T04:12:41.108Z,23.77
2018-09-21T04:13:13.474Z,23.77
2018-09-21T04:13:45.590Z,23.76
2018-09-21T04:14:17.847Z,23.78
2018-09-21T04:14:50.279Z,23.77
2018-09-21T04:15:22.393Z,23.77
2018-09-21T04:15:54.518Z,23.77
2018-09-21T04:16:26.617Z,23.76
2018-09-21T04:16:58.746Z,23.76
2018-09-21T04:17:31.030Z,23.77
2018-09-21T04:18:03.172Z,23.76
2018-09-21T04:18:35.267Z,23.76
2018-09-21T04:19:07.465Z,23.74
2018-09-21T04:19:39.576Z,23.76
2018-09-21T04:20:11.855Z,23.75
2018-09-21T04:20:43.983Z,23.77
2018-09-21T04:21:16.116Z,23.76
2018-09-21T04:21:48.343Z,23.76
2018-09-21T04:22:20.606Z,23.77
2018-09-21T04:22:52.965Z,23.77
2018-09-21T04:23:25.032Z,23.78
2018-09-21T04:23:57.317Z,23.78
2018-09-21T04:24:29.503Z,23.77
2018-09-21T04:25:01.611Z,23.78
2018-09-21T04:25:33.699Z,23.77
2018-09-21T04:26:05.783Z,23.77
2018-09-21T04:26:38.147Z,23.76
2018-09-21T04:27:10.258Z,23.78
2018-09-21T04:27:42.398Z,23.75
2018-09-21T04:28:14.569Z,23.76
2018-09-21T04:28:46.711Z,23.76
2018-09-21T04:29:19.091Z,23.76
2018-09-21T04:29:51.173Z,23.75
2018-09-21T04:30:23.628Z,23.76
2018-09-21T04:30:56.038Z,23.73
2018-09-21T04:31:28.243Z,23.74
2018-09-21T04:32:00.493Z,23.73
2018-09-21T04:32:32.616Z,23.74
2018-09-21T04:33:04.785Z,23.75
2018-09-21T04:33:36.845Z,23.74
2018-09-21T04:34:08.992Z,23.76
2018-09-21T04:34:41.083Z,23.76
2018-09-21T04:35:13.468Z,23.75
2018-09-21T04:35:45.558Z,23.75
2018-09-21T04:36:17.640Z,23.77
2018-09-21T04:36:49.758Z,23.76
2018-09-21T04:37:21.903Z,23.77
2018-09-21T04:37:54.030Z,23.76
2018-09-21T04:38:26.186Z,23.77
2018-09-21T04:38:58.291Z,23.78
2018-09-21T04:39:30.446Z,23.77
2018-09-21T04:40:02.762Z,23.76
2018-09-21T04:40:34.902Z,23.76
2018-09-21T04:41:07.055Z,23.74
2018-09-21T04:41:39.167Z,23.75
2018-09-21T04:42:11.307Z,23.76
2018-09-21T04:42:43.423Z,23.75
2018-09-21T04:43:15.510Z,23.77
2018-09-21T04:43:47.625Z,23.77
2018-09-21T04:44:19.796Z,23.77
2018-09-21T04:44:51.934Z,23.77
2018-09-21T04:45:24.033Z,23.76
2018-09-21T04:45:56.395Z,23.76
2018-09-21T04:46:28.438Z,23.76
2018-09-21T04:47:00.624Z,23.77
2018-09-21T04:47:32.876Z,23.75
2018-09-21T04:48:05.131Z,23.77
2018-09-21T04:48:37.282Z,23.77
2018-09-21T04:49:09.538Z,23.76
2018-09-21T04:49:41.830Z,23.77
2018-09-21T04:50:14.025Z,23.77
2018-09-21T04:50:46.241Z,23.74
2018-09-21T04:51:18.355Z,23.76
2018-09-21T04:51:50.531Z,23.75
2018-09-21T04:52:22.618Z,23.74
2018-09-21T04:52:54.715Z,23.73
2018-09-21T04:53:26.947Z,23.76
2018-09-21T04:53:59.266Z,23.75
2018-09-21T04:54:31.359Z,23.76
2018-09-21T04:55:03.534Z,23.77
2018-09-21T04:55:35.624Z,23.76
2018-09-21T04:56:07.749Z,23.77
2018-09-21T04:56:39.854Z,23.77
2018-09-21T04:57:12.160Z,23.77
2018-09-21T04:57:44.330Z,23.75
2018-09-21T04:58:16.456Z,23.76
2018-09-21T04:58:48.653Z,23.77
2018-09-21T04:59:20.766Z,23.76
2018-09-21T04:59:52.919Z,23.77
2018-09-21T05:00:25.050Z,23.76
2018-09-21T05:00:57.179Z,23.76
2018-09-21T05:01:29.351Z,23.74
2018-09-21T05:02:01.530Z,23.77
2018-09-21T05:02:33.660Z,23.75
2018-09-21T05:03:05.795Z,23.76
2018-09-21T05:03:37.941Z,23.76
2018-09-21T05:04:10.091Z,23.74
2018-09-21T05:04:42.200Z,23.74
2018-09-21T05:05:14.413Z,23.77
2018-09-21T05:05:46.576Z,23.77
2018-09-21T05:06:18.705Z,23.76
2018-09-21T05:06:51.065Z,23.77
2018-09-21T05:07:23.158Z,23.76
2018-09-21T05:07:55.612Z,23.76
2018-09-21T05:08:27.706Z,23.76
2018-09-21T05:08:59.853Z,23.77
2018-09-21T05:09:31.958Z,23.78
2018-09-21T05:10:04.064Z,23.78
2018-09-21T05:10:36.244Z,23.78
2018-09-21T05:11:08.328Z,23.76
2018-09-21T05:11:40.485Z,23.76
2018-09-21T05:12:12.656Z,23.76
2018-09-21T05:12:44.838Z,23.78
2018-09-21T05:13:17.172Z,23.76
2018-09-21T05:13:49.529Z,23.77
2018-09-21T05:14:21.841Z,23.76
2018-09-21T05:14:53.954Z,23.77
2018-09-21T05:15:26.287Z,23.77
2018-09-21T05:15:58.505Z,23.77
2018-09-21T05:16:30.631Z,23.78
2018-09-21T05:17:02.727Z,23.77
2018-09-21T05:17:34.858Z,23.78
2018-09-21T05:18:06.979Z,23.77
2018-09-21T05:18:39.064Z,23.76
2018-09-21T05:19:11.202Z,23.76
2018-09-21T05:19:43.375Z,23.76
2018-09-21T05:20:15.736Z,23.76
2018-09-21T05:20:47.925Z,23.77
2018-09-21T05:21:20.054Z,23.77
2018-09-21T05:21:52.165Z,23.76
2018-09-21T05:22:24.266Z,23.76
2018-09-21T05:22:56.410Z,23.76
2018-09-21T05:23:28.625Z,23.78
2018-09-21T05:24:00.754Z,23.77
2018-09-21T05:24:32.969Z,23.77
2018-09-21T05:25:05.048Z,23.77
2018-09-21T05:25:37.481Z,23.78
2018-09-21T05:26:09.602Z,23.78
2018-09-21T05:26:41.765Z,23.78
2018-09-21T05:27:13.918Z,23.78
2018-09-21T05:27:46.009Z,23.78
2018-09-21T05:28:18.114Z,23.78
2018-09-21T05:28:50.437Z,23.78
2018-09-21T05:29:22.626Z,23.77
2018-09-21T05:29:54.813Z,23.77
2018-09-21T05:30:27.003Z,23.76
2018-09-21T05:30:59.292Z,23.76
2018-09-21T05:31:31.410Z,23.77
2018-09-21T05:32:03.540Z,23.77
2018-09-21T05:32:35.795Z,23.78
2018-09-21T05:33:07.898Z,23.77
2018-09-21T05:33:40.049Z,23.77
2018-09-21T05:34:12.213Z,23.78
2018-09-21T05:34:44.350Z,23.77
2018-09-21T05:35:16.484Z,23.77
2018-09-21T05:35:48.584Z,23.77
2018-09-21T05:36:20.717Z,23.77
2018-09-21T05:36:52.816Z,23.78
2018-09-21T05:37:25.049Z,23.78
2018-09-21T05:37:57.119Z,23.78
2018-09-21T05:38:29.296Z,23.78
2018-09-21T05:39:01.387Z,23.78
2018-09-21T05:39:33.554Z,23.79
2018-09-21T05:40:05.850Z,23.78
2018-09-21T05:40:37.993Z,23.79
2018-09-21T05:41:10.360Z,23.78
2018-09-21T05:41:42.440Z,23.79
2018-09-21T05:42:14.555Z,23.78
2018-09-21T05:42:46.639Z,23.77
2018-09-21T05:43:18.796Z,23.77
2018-09-21T05:43:51.012Z,23.78
2018-09-21T05:44:23.099Z,23.78
2018-09-21T05:44:55.190Z,23.77
2018-09-21T05:45:27.312Z,23.78
2018-09-21T05:45:59.433Z,23.79
2018-09-21T05:46:31.887Z,23.78
2018-09-21T05:47:04.097Z,23.78
2018-09-21T05:47:36.178Z,23.78
2018-09-21T05:48:08.369Z,23.78
2018-09-21T05:48:40.492Z,23.78
2018-09-21T05:49:12.567Z,23.77
2018-09-21T05:49:44.813Z,23.78
2018-09-21T05:50:16.896Z,23.78
2018-09-21T05:50:49.139Z,23.78
2018-09-21T05:51:21.486Z,23.79
2018-09-21T05:51:53.641Z,23.78
2018-09-21T05:52:25.899Z,23.79
2018-09-21T05:52:58.241Z,23.79
2018-09-21T05:53:30.538Z,23.80
2018-09-21T05:54:02.834Z,23.81
2018-09-21T05:54:35.122Z,23.79
2018-09-21T05:55:07.295Z,23.80
2018-09-21T05:55:39.539Z,23.80
2018-09-21T05:56:11.934Z,23.80
2018-09-21T05:56:44.070Z,23.80
2018-09-21T05:57:16.173Z,23.81
2018-09-21T05:57:48.425Z,23.80
2018-09-21T05:58:20.616Z,23.80
2018-09-21T05:58:53.183Z,23.79
2018-09-21T05:59:25.466Z,23.80
2018-09-21T05:59:57.549Z,23.79
2018-09-21T06:00:29.674Z,23.79
2018-09-21T06:01:01.793Z,23.78
2018-09-21T06:01:33.945Z,23.79
2018-09-21T06:02:06.096Z,23.78
2018-09-21T06:02:38.289Z,23.80
2018-09-21T06:03:10.286Z,23.78
2018-09-21T06:03:42.469Z,23.80
2018-09-21T06:04:14.719Z,23.80
2018-09-21T06:04:46.846Z,23.80
2018-09-21T06:05:19.155Z,23.80
2018-09-21T06:05:51.392Z,23.80
2018-09-21T06:06:23.499Z,23.79
2018-09-21T06:06:55.757Z,23.80
2018-09-21T06:07:28.022Z,23.80
2018-09-21T06:08:00.346Z,23.81
2018-09-21T06:08:32.558Z,23.81
2018-09-21T06:09:04.693Z,23.81
2018-09-21T06:09:37.009Z,23.81
2018-09-21T06:10:09.194Z,23.82
2018-09-21T06:10:41.301Z,23.81
2018-09-21T06:11:13.478Z,23.81
2018-09-21T06:11:45.587Z,23.82
2018-09-21T06:12:17.692Z,23.80
2018-09-21T06:12:49.890Z,23.82
2018-09-21T06:13:22.161Z,23.82
2018-09-21T06:13:54.301Z,23.82
2018-09-21T06:14:26.571Z,23.82
2018-09-21T06:14:58.643Z,23.82
2018-09-21T06:15:30.747Z,23.82
2018-09-21T06:16:03.075Z,23.82
2018-09-21T06:16:35.189Z,23.82
2018-09-21T06:17:07.311Z,23.83
2018-09-21T06:17:39.411Z,23.83
2018-09-21T06:18:11.544Z,23.82
2018-09-21T06:18:43.807Z,23.82
2018-09-21T06:19:16.087Z,23.81
2018-09-21T06:19:48.315Z,23.81
2018-09-21T06:20:20.470Z,23.83
2018-09-21T06:20:52.595Z,23.83
2018-09-21T06:21:24.878Z,23.83
2018-09-21T06:21:57.211Z,23.82
2018-09-21T06:22:29.565Z,23.83
2018-09-21T06:23:01.730Z,23.83
2018-09-21T06:23:33.875Z,23.84
2018-09-21T06:24:06.261Z,23.84
2018-09-21T06:24:38.484Z,23.85
2018-09-21T06:25:10.595Z,23.84
2018-09-21T06:25:43.012Z,23.85
2018-09-21T06:26:15.133Z,23.85
2018-09-21T06:26:47.233Z,23.86
2018-09-21T06:27:19.339Z,23.85
2018-09-21T06:27:51.469Z,23.86
2018-09-21T06:28:23.572Z,23.87
2018-09-21T06:28:55.921Z,23.86
2018-09-21T06:29:28.051Z,23.87
2018-09-21T06:30:00.130Z,23.87
2018-09-21T06:30:32.311Z,23.86
2018-09-21T06:31:04.466Z,23.86
2018-09-21T06:31:36.589Z,23.87
2018-09-21T06:32:08.788Z,23.86
2018-09-21T06:32:40.967Z,23.86
2018-09-21T06:33:13.069Z,23.88
2018-09-21T06:33:45.262Z,23.88
2018-09-21T06:34:17.441Z,23.89
2018-09-21T06:34:49.646Z,23.89
2018-09-21T06:35:21.729Z,23.89
2018-09-21T06:35:54.006Z,23.89
2018-09-21T06:36:26.317Z,23.89
2018-09-21T06:36:58.411Z,23.89
2018-09-21T06:37:30.590Z,23.88
2018-09-21T06:38:02.754Z,23.89
2018-09-21T06:38:35.000Z,23.89
2018-09-21T06:39:07.082Z,23.89
2018-09-21T06:39:39.553Z,23.89
2018-09-21T06:40:11.649Z,23.90
2018-09-21T06:40:43.777Z,23.90
2018-09-21T06:41:15.879Z,23.90
2018-09-21T06:41:48.028Z,23.91
2018-09-21T06:42:20.162Z,23.90
2018-09-21T06:42:52.260Z,23.91
2018-09-21T06:43:24.345Z,23.90
2018-09-21T06:43:56.454Z,23.90
2018-09-21T06:44:28.588Z,23.91
2018-09-21T06:45:00.652Z,23.91
2018-09-21T06:45:32.794Z,23.90
2018-09-21T06:46:05.065Z,23.90
2018-09-21T06:46:37.241Z,23.90
2018-09-21T06:47:09.334Z,23.91
2018-09-21T06:47:41.603Z,23.91
2018-09-21T06:48:13.739Z,23.90
2018-09-21T06:48:45.822Z,23.89
2018-09-21T06:49:18.088Z,23.90
2018-09-21T06:49:50.216Z,23.90
2018-09-21T06:50:22.297Z,23.91
2018-09-21T06:50:54.436Z,23.92
2018-09-21T06:51:26.533Z,23.91
2018-09-21T06:51:58.754Z,23.91
2018-09-21T06:52:31.019Z,23.91
2018-09-21T06:53:03.394Z,23.92
2018-09-21T06:53:36.230Z,23.92
2018-09-21T06:54:08.322Z,23.91